sensor_id;sensor_type;location;lat;lon;timestamp;temperature;humidity
42989;DHT22;28622;43.716;20.668;2023-04-03T00:02:17;10.60;99.90
42989;DHT22;28622;43.716;20.668;2023-04-03T00:04:43;10.70;99.90
42989;DHT22;28622;43.716;20.668;2023-04-03T00:07:09;10.70;99.90
42989;DHT22;28622;43.716;20.668;2023-04-03T00:09:34;10.70;99.90
42989;DHT22;28622;43.716;20.668;2023-04-03T00:12:00;10.70;99.90
42989;DHT22;28622;43.716;20.668;2023-04-03T00:14:26;10.70;99.90
42989;DHT22;28622;43.716;20.668;2023-04-03T00:16:53;10.70;99.90
42989;DHT22;28622;43.716;20.668;2023-04-03T00:19:18;10.70;99.90
42989;DHT22;28622;43.716;20.668;2023-04-03T00:21:44;10.70;99.90
42989;DHT22;28622;43.716;20.668;2023-04-03T00:24:10;10.70;99.90
42989;DHT22;28622;43.716;20.668;2023-04-03T00:26:36;10.70;99.90
42989;DHT22;28622;43.716;20.668;2023-04-03T00:29:02;10.70;99.90
42989;DHT22;28622;43.716;20.668;2023-04-03T00:31:28;10.70;99.90
42989;DHT22;28622;43.716;20.668;2023-04-03T00:33:54;10.70;99.90
42989;DHT22;28622;43.716;20.668;2023-04-03T00:36:19;10.70;99.90
42989;DHT22;28622;43.716;20.668;2023-04-03T00:38:45;10.60;99.90
42989;DHT22;28622;43.716;20.668;2023-04-03T00:41:11;10.60;99.90
42989;DHT22;28622;43.716;20.668;2023-04-03T00:43:37;10.60;99.90
42989;DHT22;28622;43.716;20.668;2023-04-03T00:46:03;10.70;99.90
42989;DHT22;28622;43.716;20.668;2023-04-03T00:48:32;10.60;99.90
42989;DHT22;28622;43.716;20.668;2023-04-03T00:51:00;10.60;99.90
42989;DHT22;28622;43.716;20.668;2023-04-03T00:53:31;10.60;99.90
42989;DHT22;28622;43.716;20.668;2023-04-03T00:55:58;10.60;99.90
42989;DHT22;28622;43.716;20.668;2023-04-03T00:58:58;10.50;99.90
42989;DHT22;28622;43.716;20.668;2023-04-03T01:01:25;10.50;99.90
42989;DHT22;28622;43.716;20.668;2023-04-03T01:03:51;10.60;99.90
42989;DHT22;28622;43.716;20.668;2023-04-03T01:06:21;10.70;99.90
42989;DHT22;28622;43.716;20.668;2023-04-03T01:08:49;10.60;99.90
42989;DHT22;28622;43.716;20.668;2023-04-03T01:11:15;10.60;99.90
42989;DHT22;28622;43.716;20.668;2023-04-03T01:13:41;10.60;99.90
42989;DHT22;28622;43.716;20.668;2023-04-03T01:16:07;10.60;99.90
42989;DHT22;28622;43.716;20.668;2023-04-03T01:18:36;10.50;99.90
42989;DHT22;28622;43.716;20.668;2023-04-03T01:21:49;10.60;99.90
42989;DHT22;28622;43.716;20.668;2023-04-03T01:26:38;10.60;99.90
42989;DHT22;28622;43.716;20.668;2023-04-03T01:29:05;10.50;99.90
42989;DHT22;28622;43.716;20.668;2023-04-03T01:31:31;10.50;99.90
42989;DHT22;28622;43.716;20.668;2023-04-03T01:33:59;10.50;99.90
42989;DHT22;28622;43.716;20.668;2023-04-03T01:36:28;10.50;99.90
42989;DHT22;28622;43.716;20.668;2023-04-03T01:38:55;10.50;99.90
42989;DHT22;28622;43.716;20.668;2023-04-03T01:41:22;10.60;99.90
42989;DHT22;28622;43.716;20.668;2023-04-03T01:43:48;10.60;99.90
42989;DHT22;28622;43.716;20.668;2023-04-03T01:46:16;10.60;99.90
42989;DHT22;28622;43.716;20.668;2023-04-03T01:48:42;10.60;99.90
42989;DHT22;28622;43.716;20.668;2023-04-03T01:51:08;10.60;99.90
42989;DHT22;28622;43.716;20.668;2023-04-03T01:53:34;10.60;99.90
42989;DHT22;28622;43.716;20.668;2023-04-03T01:56:00;10.60;99.90
42989;DHT22;28622;43.716;20.668;2023-04-03T01:58:25;10.50;99.90
42989;DHT22;28622;43.716;20.668;2023-04-03T02:00:52;10.50;99.90
42989;DHT22;28622;43.716;20.668;2023-04-03T02:03:18;10.50;99.90
42989;DHT22;28622;43.716;20.668;2023-04-03T02:05:44;10.50;99.90
42989;DHT22;28622;43.716;20.668;2023-04-03T02:08:11;10.50;99.90
42989;DHT22;28622;43.716;20.668;2023-04-03T02:10:36;10.50;99.90
42989;DHT22;28622;43.716;20.668;2023-04-03T02:13:02;10.50;99.90
42989;DHT22;28622;43.716;20.668;2023-04-03T02:15:28;10.50;99.90
42989;DHT22;28622;43.716;20.668;2023-04-03T02:17:54;10.50;99.90
42989;DHT22;28622;43.716;20.668;2023-04-03T02:20:20;10.50;99.90
42989;DHT22;28622;43.716;20.668;2023-04-03T02:22:46;10.50;99.90
42989;DHT22;28622;43.716;20.668;2023-04-03T02:25:12;10.50;99.90
42989;DHT22;28622;43.716;20.668;2023-04-03T02:27:38;10.50;99.90
42989;DHT22;28622;43.716;20.668;2023-04-03T02:30:05;10.50;99.90
42989;DHT22;28622;43.716;20.668;2023-04-03T02:32:31;10.50;99.90
42989;DHT22;28622;43.716;20.668;2023-04-03T02:34:57;10.50;99.90
42989;DHT22;28622;43.716;20.668;2023-04-03T02:37:23;10.50;99.90
42989;DHT22;28622;43.716;20.668;2023-04-03T02:39:48;10.50;99.90
42989;DHT22;28622;43.716;20.668;2023-04-03T02:42:14;10.50;99.90
42989;DHT22;28622;43.716;20.668;2023-04-03T02:44:40;10.50;99.90
42989;DHT22;28622;43.716;20.668;2023-04-03T02:47:06;10.40;99.90
42989;DHT22;28622;43.716;20.668;2023-04-03T02:49:31;10.30;99.90
42989;DHT22;28622;43.716;20.668;2023-04-03T02:51:57;10.30;99.90
42989;DHT22;28622;43.716;20.668;2023-04-03T02:54:23;10.30;99.90
42989;DHT22;28622;43.716;20.668;2023-04-03T02:56:53;10.30;99.90
42989;DHT22;28622;43.716;20.668;2023-04-03T02:59:18;10.20;99.90
42989;DHT22;28622;43.716;20.668;2023-04-03T03:01:44;10.20;99.90
42989;DHT22;28622;43.716;20.668;2023-04-03T03:04:10;10.20;99.90
42989;DHT22;28622;43.716;20.668;2023-04-03T03:06:36;10.10;99.90
42989;DHT22;28622;43.716;20.668;2023-04-03T03:09:02;10.10;99.90
42989;DHT22;28622;43.716;20.668;2023-04-03T03:11:29;10.10;99.90
42989;DHT22;28622;43.716;20.668;2023-04-03T03:13:55;10.10;99.90
42989;DHT22;28622;43.716;20.668;2023-04-03T03:16:21;10.10;99.90
42989;DHT22;28622;43.716;20.668;2023-04-03T03:18:47;10.20;99.90
42989;DHT22;28622;43.716;20.668;2023-04-03T03:21:13;10.20;99.90
42989;DHT22;28622;43.716;20.668;2023-04-03T03:23:38;10.20;99.90
42989;DHT22;28622;43.716;20.668;2023-04-03T03:26:07;10.20;99.90
42989;DHT22;28622;43.716;20.668;2023-04-03T03:28:34;10.20;99.90
42989;DHT22;28622;43.716;20.668;2023-04-03T03:31:00;10.20;99.90
42989;DHT22;28622;43.716;20.668;2023-04-03T03:33:26;10.20;99.90
42989;DHT22;28622;43.716;20.668;2023-04-03T03:35:53;10.20;99.90
42989;DHT22;28622;43.716;20.668;2023-04-03T03:38:19;10.20;99.90
42989;DHT22;28622;43.716;20.668;2023-04-03T03:40:47;10.20;99.90
42989;DHT22;28622;43.716;20.668;2023-04-03T03:43:14;10.20;99.90
42989;DHT22;28622;43.716;20.668;2023-04-03T03:45:40;10.30;99.90
42989;DHT22;28622;43.716;20.668;2023-04-03T03:48:06;10.30;99.90
42989;DHT22;28622;43.716;20.668;2023-04-03T03:50:31;10.30;99.90
42989;DHT22;28622;43.716;20.668;2023-04-03T03:52:57;10.30;99.90
42989;DHT22;28622;43.716;20.668;2023-04-03T03:55:23;10.40;99.90
42989;DHT22;28622;43.716;20.668;2023-04-03T03:57:49;10.40;99.90
42989;DHT22;28622;43.716;20.668;2023-04-03T04:00:15;10.40;99.90
42989;DHT22;28622;43.716;20.668;2023-04-03T04:02:41;10.40;99.90
42989;DHT22;28622;43.716;20.668;2023-04-03T04:05:07;10.30;99.90
42989;DHT22;28622;43.716;20.668;2023-04-03T04:07:32;10.40;99.90
42989;DHT22;28622;43.716;20.668;2023-04-03T04:09:58;10.40;99.90
42989;DHT22;28622;43.716;20.668;2023-04-03T04:12:24;10.40;99.90
42989;DHT22;28622;43.716;20.668;2023-04-03T04:14:50;10.30;99.90
42989;DHT22;28622;43.716;20.668;2023-04-03T04:17:15;10.40;99.90
42989;DHT22;28622;43.716;20.668;2023-04-03T04:19:41;10.40;99.90
42989;DHT22;28622;43.716;20.668;2023-04-03T04:22:07;10.40;99.90
42989;DHT22;28622;43.716;20.668;2023-04-03T04:24:33;10.40;99.90
42989;DHT22;28622;43.716;20.668;2023-04-03T04:26:58;10.40;99.90
42989;DHT22;28622;43.716;20.668;2023-04-03T04:29:24;10.40;99.90
42989;DHT22;28622;43.716;20.668;2023-04-03T04:31:50;10.30;99.90
42989;DHT22;28622;43.716;20.668;2023-04-03T04:34:16;10.30;99.90
42989;DHT22;28622;43.716;20.668;2023-04-03T04:36:42;10.20;99.90
42989;DHT22;28622;43.716;20.668;2023-04-03T04:39:08;10.20;99.90
42989;DHT22;28622;43.716;20.668;2023-04-03T04:41:34;10.00;99.90
42989;DHT22;28622;43.716;20.668;2023-04-03T04:44:00;9.90;99.90
42989;DHT22;28622;43.716;20.668;2023-04-03T04:46:25;9.60;99.90
42989;DHT22;28622;43.716;20.668;2023-04-03T04:48:51;9.40;99.90
42989;DHT22;28622;43.716;20.668;2023-04-03T04:51:17;9.30;99.90
42989;DHT22;28622;43.716;20.668;2023-04-03T04:53:43;9.20;99.90
42989;DHT22;28622;43.716;20.668;2023-04-03T04:56:09;9.20;99.90
42989;DHT22;28622;43.716;20.668;2023-04-03T04:58:35;9.10;99.90
42989;DHT22;28622;43.716;20.668;2023-04-03T05:01:03;8.90;99.90
42989;DHT22;28622;43.716;20.668;2023-04-03T05:03:30;8.90;99.90
42989;DHT22;28622;43.716;20.668;2023-04-03T05:05:55;8.80;99.90
42989;DHT22;28622;43.716;20.668;2023-04-03T05:08:21;8.70;99.90
42989;DHT22;28622;43.716;20.668;2023-04-03T05:10:47;8.70;99.90
42989;DHT22;28622;43.716;20.668;2023-04-03T05:13:13;8.70;99.90
42989;DHT22;28622;43.716;20.668;2023-04-03T05:15:39;8.60;99.90
42989;DHT22;28622;43.716;20.668;2023-04-03T05:18:05;8.40;99.90
42989;DHT22;28622;43.716;20.668;2023-04-03T05:20:32;8.40;99.90
42989;DHT22;28622;43.716;20.668;2023-04-03T05:22:58;8.30;99.90
42989;DHT22;28622;43.716;20.668;2023-04-03T05:25:24;8.40;99.90
42989;DHT22;28622;43.716;20.668;2023-04-03T05:27:50;8.30;99.90
42989;DHT22;28622;43.716;20.668;2023-04-03T05:30:16;8.30;99.90
42989;DHT22;28622;43.716;20.668;2023-04-03T05:32:42;8.30;99.90
42989;DHT22;28622;43.716;20.668;2023-04-03T05:35:08;8.30;99.90
42989;DHT22;28622;43.716;20.668;2023-04-03T05:37:34;8.20;99.90
42989;DHT22;28622;43.716;20.668;2023-04-03T05:40:00;8.20;99.90
42989;DHT22;28622;43.716;20.668;2023-04-03T05:42:26;8.40;99.90
42989;DHT22;28622;43.716;20.668;2023-04-03T05:44:52;8.40;99.90
42989;DHT22;28622;43.716;20.668;2023-04-03T05:47:18;8.40;99.90
42989;DHT22;28622;43.716;20.668;2023-04-03T05:49:44;8.40;99.90
42989;DHT22;28622;43.716;20.668;2023-04-03T05:52:28;8.40;99.90
42989;DHT22;28622;43.716;20.668;2023-04-03T05:54:54;8.40;99.90
42989;DHT22;28622;43.716;20.668;2023-04-03T05:57:20;8.30;99.90
42989;DHT22;28622;43.716;20.668;2023-04-03T05:59:47;8.20;99.90
42989;DHT22;28622;43.716;20.668;2023-04-03T06:02:15;8.10;99.90
42989;DHT22;28622;43.716;20.668;2023-04-03T06:04:41;8.00;99.90
42989;DHT22;28622;43.716;20.668;2023-04-03T06:07:14;8.10;99.90
42989;DHT22;28622;43.716;20.668;2023-04-03T06:09:41;8.10;99.90
42989;DHT22;28622;43.716;20.668;2023-04-03T06:12:08;8.00;99.90
42989;DHT22;28622;43.716;20.668;2023-04-03T06:14:34;8.00;99.90
42989;DHT22;28622;43.716;20.668;2023-04-03T06:17:00;7.90;99.90
42989;DHT22;28622;43.716;20.668;2023-04-03T06:19:27;7.90;99.90
42989;DHT22;28622;43.716;20.668;2023-04-03T06:21:53;7.90;99.90
42989;DHT22;28622;43.716;20.668;2023-04-03T06:24:19;7.90;99.90
42989;DHT22;28622;43.716;20.668;2023-04-03T06:26:47;7.90;99.90
42989;DHT22;28622;43.716;20.668;2023-04-03T06:29:13;7.90;99.90
42989;DHT22;28622;43.716;20.668;2023-04-03T06:31:39;7.80;99.90
42989;DHT22;28622;43.716;20.668;2023-04-03T06:34:05;7.80;99.90
42989;DHT22;28622;43.716;20.668;2023-04-03T06:36:33;7.80;99.90
42989;DHT22;28622;43.716;20.668;2023-04-03T06:39:00;7.60;99.90
42989;DHT22;28622;43.716;20.668;2023-04-03T06:41:25;7.50;99.90
42989;DHT22;28622;43.716;20.668;2023-04-03T06:43:52;7.50;99.90
42989;DHT22;28622;43.716;20.668;2023-04-03T06:46:20;7.50;99.90
42989;DHT22;28622;43.716;20.668;2023-04-03T06:48:47;7.50;99.90
42989;DHT22;28622;43.716;20.668;2023-04-03T06:51:27;7.40;99.90
42989;DHT22;28622;43.716;20.668;2023-04-03T06:53:55;7.50;99.90
42989;DHT22;28622;43.716;20.668;2023-04-03T06:56:22;7.40;99.90
42989;DHT22;28622;43.716;20.668;2023-04-03T06:58:48;7.40;99.90
42989;DHT22;28622;43.716;20.668;2023-04-03T07:01:15;7.40;99.90
42989;DHT22;28622;43.716;20.668;2023-04-03T07:03:42;7.40;99.90
42989;DHT22;28622;43.716;20.668;2023-04-03T07:06:11;7.40;99.90
42989;DHT22;28622;43.716;20.668;2023-04-03T07:08:37;7.50;99.90
42989;DHT22;28622;43.716;20.668;2023-04-03T07:11:03;7.50;99.90
42989;DHT22;28622;43.716;20.668;2023-04-03T07:13:29;7.50;99.90
42989;DHT22;28622;43.716;20.668;2023-04-03T07:15:55;7.60;99.90
42989;DHT22;28622;43.716;20.668;2023-04-03T07:18:22;7.60;99.90
42989;DHT22;28622;43.716;20.668;2023-04-03T07:20:48;7.60;99.90
42989;DHT22;28622;43.716;20.668;2023-04-03T07:23:15;7.60;99.90
42989;DHT22;28622;43.716;20.668;2023-04-03T07:25:45;7.60;99.90
42989;DHT22;28622;43.716;20.668;2023-04-03T07:28:12;7.60;99.90
42989;DHT22;28622;43.716;20.668;2023-04-03T07:30:52;7.70;99.90
42989;DHT22;28622;43.716;20.668;2023-04-03T07:33:20;7.60;99.90
42989;DHT22;28622;43.716;20.668;2023-04-03T07:35:47;7.70;99.90
42989;DHT22;28622;43.716;20.668;2023-04-03T07:38:13;7.70;99.90
42989;DHT22;28622;43.716;20.668;2023-04-03T07:40:39;7.70;99.90
42989;DHT22;28622;43.716;20.668;2023-04-03T07:43:05;7.50;99.90
42989;DHT22;28622;43.716;20.668;2023-04-03T07:45:34;7.60;99.90
42989;DHT22;28622;43.716;20.668;2023-04-03T07:48:00;7.60;99.90
42989;DHT22;28622;43.716;20.668;2023-04-03T07:50:26;7.60;99.90
42989;DHT22;28622;43.716;20.668;2023-04-03T07:52:52;7.50;99.90
42989;DHT22;28622;43.716;20.668;2023-04-03T07:55:20;7.40;99.90
42989;DHT22;28622;43.716;20.668;2023-04-03T07:57:45;7.50;99.90
42989;DHT22;28622;43.716;20.668;2023-04-03T08:00:12;7.50;99.90
42989;DHT22;28622;43.716;20.668;2023-04-03T08:02:38;7.50;99.90
42989;DHT22;28622;43.716;20.668;2023-04-03T08:05:04;7.50;99.90
42989;DHT22;28622;43.716;20.668;2023-04-03T08:07:30;7.40;99.90
42989;DHT22;28622;43.716;20.668;2023-04-03T08:09:55;7.40;99.90
42989;DHT22;28622;43.716;20.668;2023-04-03T08:12:22;7.40;99.90
42989;DHT22;28622;43.716;20.668;2023-04-03T08:14:48;7.40;99.90
42989;DHT22;28622;43.716;20.668;2023-04-03T08:17:14;7.40;99.90
42989;DHT22;28622;43.716;20.668;2023-04-03T08:19:40;7.30;99.90
42989;DHT22;28622;43.716;20.668;2023-04-03T08:22:06;7.40;99.90
42989;DHT22;28622;43.716;20.668;2023-04-03T08:24:32;7.40;99.90
42989;DHT22;28622;43.716;20.668;2023-04-03T08:26:58;7.40;99.90
42989;DHT22;28622;43.716;20.668;2023-04-03T08:29:24;7.40;99.90
42989;DHT22;28622;43.716;20.668;2023-04-03T08:31:50;7.40;99.90
42989;DHT22;28622;43.716;20.668;2023-04-03T08:34:16;7.50;99.90
42989;DHT22;28622;43.716;20.668;2023-04-03T08:36:43;7.50;99.90
42989;DHT22;28622;43.716;20.668;2023-04-03T08:39:09;7.40;99.90
42989;DHT22;28622;43.716;20.668;2023-04-03T08:41:40;7.50;99.90
42989;DHT22;28622;43.716;20.668;2023-04-03T08:44:31;7.50;99.90
42989;DHT22;28622;43.716;20.668;2023-04-03T08:47:14;7.40;99.90
42989;DHT22;28622;43.716;20.668;2023-04-03T08:49:47;7.50;99.90
42989;DHT22;28622;43.716;20.668;2023-04-03T08:52:42;7.50;99.90
42989;DHT22;28622;43.716;20.668;2023-04-03T08:55:25;7.50;99.90
42989;DHT22;28622;43.716;20.668;2023-04-03T08:58:01;7.50;99.90
42989;DHT22;28622;43.716;20.668;2023-04-03T09:00:30;7.40;99.90
42989;DHT22;28622;43.716;20.668;2023-04-03T09:02:58;7.30;99.90
42989;DHT22;28622;43.716;20.668;2023-04-03T09:08:24;7.30;99.90
42989;DHT22;28622;43.716;20.668;2023-04-03T09:22:13;6.90;99.90
42989;DHT22;28622;43.716;20.668;2023-04-03T09:24:45;7.00;99.90
42989;DHT22;28622;43.716;20.668;2023-04-03T09:27:12;7.10;99.90
42989;DHT22;28622;43.716;20.668;2023-04-03T09:29:41;7.10;99.90
42989;DHT22;28622;43.716;20.668;2023-04-03T09:32:21;7.10;99.90
42989;DHT22;28622;43.716;20.668;2023-04-03T09:34:51;7.10;99.90
42989;DHT22;28622;43.716;20.668;2023-04-03T09:37:40;7.10;99.90
42989;DHT22;28622;43.716;20.668;2023-04-03T09:40:34;7.20;99.90
42989;DHT22;28622;43.716;20.668;2023-04-03T09:45:49;7.20;99.90
42989;DHT22;28622;43.716;20.668;2023-04-03T09:48:19;7.20;99.90
42989;DHT22;28622;43.716;20.668;2023-04-03T09:53:32;7.30;99.90
42989;DHT22;28622;43.716;20.668;2023-04-03T09:56:00;7.30;99.90
42989;DHT22;28622;43.716;20.668;2023-04-03T09:58:47;7.40;99.90
42989;DHT22;28622;43.716;20.668;2023-04-03T10:01:35;7.40;99.90
42989;DHT22;28622;43.716;20.668;2023-04-03T10:06:38;7.40;99.90
42989;DHT22;28622;43.716;20.668;2023-04-03T10:09:27;7.30;99.90
42989;DHT22;28622;43.716;20.668;2023-04-03T10:12:12;7.40;99.90
42989;DHT22;28622;43.716;20.668;2023-04-03T10:15:00;7.40;99.90
42989;DHT22;28622;43.716;20.668;2023-04-03T10:25:35;7.50;99.90
42989;DHT22;28622;43.716;20.668;2023-04-03T10:28:14;7.60;99.90
42989;DHT22;28622;43.716;20.668;2023-04-03T10:34:06;7.60;99.90
42989;DHT22;28622;43.716;20.668;2023-04-03T10:36:45;7.60;99.90
42989;DHT22;28622;43.716;20.668;2023-04-03T10:51:12;7.70;99.90
42989;DHT22;28622;43.716;20.668;2023-04-03T10:54:09;7.70;99.90
42989;DHT22;28622;43.716;20.668;2023-04-03T10:56:37;7.80;99.90
42989;DHT22;28622;43.716;20.668;2023-04-03T10:59:27;7.70;99.90
42989;DHT22;28622;43.716;20.668;2023-04-03T11:01:58;7.70;99.90
42989;DHT22;28622;43.716;20.668;2023-04-03T11:04:28;7.70;99.90
42989;DHT22;28622;43.716;20.668;2023-04-03T11:07:26;7.60;99.90
42989;DHT22;28622;43.716;20.668;2023-04-03T11:10:21;7.60;99.90
42989;DHT22;28622;43.716;20.668;2023-04-03T11:12:56;7.60;99.90
42989;DHT22;28622;43.716;20.668;2023-04-03T11:15:24;7.60;99.90
42989;DHT22;28622;43.716;20.668;2023-04-03T11:18:10;7.50;99.90
42989;DHT22;28622;43.716;20.668;2023-04-03T11:20:37;7.50;99.90
42989;DHT22;28622;43.716;20.668;2023-04-03T11:23:25;7.50;99.90
42989;DHT22;28622;43.716;20.668;2023-04-03T11:25:56;7.60;99.90
42989;DHT22;28622;43.716;20.668;2023-04-03T11:28:25;7.60;99.90
42989;DHT22;28622;43.716;20.668;2023-04-03T11:31:12;7.50;99.90
42989;DHT22;28622;43.716;20.668;2023-04-03T11:36:41;7.60;99.90
42989;DHT22;28622;43.716;20.668;2023-04-03T11:39:30;7.60;99.90
42989;DHT22;28622;43.716;20.668;2023-04-03T11:42:24;7.70;99.90
42989;DHT22;28622;43.716;20.668;2023-04-03T11:45:23;7.60;99.90
42989;DHT22;28622;43.716;20.668;2023-04-03T11:47:53;7.70;99.90
42989;DHT22;28622;43.716;20.668;2023-04-03T12:08:28;7.70;99.90
42989;DHT22;28622;43.716;20.668;2023-04-03T12:19:27;7.70;99.90
42989;DHT22;28622;43.716;20.668;2023-04-03T12:38:19;7.70;99.90
42989;DHT22;28622;43.716;20.668;2023-04-03T12:46:18;7.50;99.90
42989;DHT22;28622;43.716;20.668;2023-04-03T12:51:18;7.50;99.90
42989;DHT22;28622;43.716;20.668;2023-04-03T12:53:45;7.50;99.90
42989;DHT22;28622;43.716;20.668;2023-04-03T12:56:28;7.50;99.90
42989;DHT22;28622;43.716;20.668;2023-04-03T12:59:20;7.50;99.90
42989;DHT22;28622;43.716;20.668;2023-04-03T13:01:54;7.50;99.90
42989;DHT22;28622;43.716;20.668;2023-04-03T13:04:20;7.50;99.90
42989;DHT22;28622;43.716;20.668;2023-04-03T13:06:46;7.60;99.90
42989;DHT22;28622;43.716;20.668;2023-04-03T13:09:24;7.50;99.90
42989;DHT22;28622;43.716;20.668;2023-04-03T13:11:59;7.50;99.90
42989;DHT22;28622;43.716;20.668;2023-04-03T13:14:26;7.50;99.90
42989;DHT22;28622;43.716;20.668;2023-04-03T13:17:13;7.50;99.90
42989;DHT22;28622;43.716;20.668;2023-04-03T13:19:39;7.50;99.90
42989;DHT22;28622;43.716;20.668;2023-04-03T13:22:33;7.40;99.90
42989;DHT22;28622;43.716;20.668;2023-04-03T13:25:07;7.50;99.90
42989;DHT22;28622;43.716;20.668;2023-04-03T13:27:33;7.50;99.90
42989;DHT22;28622;43.716;20.668;2023-04-03T13:30:02;7.50;99.90
42989;DHT22;28622;43.716;20.668;2023-04-03T13:32:30;7.50;99.90
42989;DHT22;28622;43.716;20.668;2023-04-03T13:34:56;7.60;99.90
42989;DHT22;28622;43.716;20.668;2023-04-03T13:37:33;7.50;99.90
42989;DHT22;28622;43.716;20.668;2023-04-03T13:42:37;7.60;99.90
42989;DHT22;28622;43.716;20.668;2023-04-03T13:45:22;7.60;99.90
42989;DHT22;28622;43.716;20.668;2023-04-03T13:47:51;7.60;99.90
42989;DHT22;28622;43.716;20.668;2023-04-03T13:50:26;7.50;99.90
42989;DHT22;28622;43.716;20.668;2023-04-03T13:53:02;7.60;99.90
42989;DHT22;28622;43.716;20.668;2023-04-03T13:55:34;7.60;99.90
42989;DHT22;28622;43.716;20.668;2023-04-03T13:58:16;7.60;99.90
42989;DHT22;28622;43.716;20.668;2023-04-03T14:00:58;7.60;99.90
42989;DHT22;28622;43.716;20.668;2023-04-03T14:03:28;7.60;99.90
42989;DHT22;28622;43.716;20.668;2023-04-03T14:05:54;7.60;99.90
42989;DHT22;28622;43.716;20.668;2023-04-03T14:08:20;7.60;99.90
42989;DHT22;28622;43.716;20.668;2023-04-03T14:10:46;7.60;99.90
42989;DHT22;28622;43.716;20.668;2023-04-03T14:13:17;7.70;99.90
42989;DHT22;28622;43.716;20.668;2023-04-03T14:15:44;7.70;99.90
42989;DHT22;28622;43.716;20.668;2023-04-03T14:18:15;7.60;99.90
42989;DHT22;28622;43.716;20.668;2023-04-03T14:20:41;7.60;99.90
42989;DHT22;28622;43.716;20.668;2023-04-03T14:23:07;7.60;99.90
42989;DHT22;28622;43.716;20.668;2023-04-03T14:25:33;7.70;99.90
42989;DHT22;28622;43.716;20.668;2023-04-03T14:27:59;7.70;99.90
42989;DHT22;28622;43.716;20.668;2023-04-03T14:30:34;7.70;99.90
42989;DHT22;28622;43.716;20.668;2023-04-03T14:33:02;7.70;99.90
42989;DHT22;28622;43.716;20.668;2023-04-03T14:35:29;7.70;99.90
42989;DHT22;28622;43.716;20.668;2023-04-03T14:37:55;7.70;99.90
42989;DHT22;28622;43.716;20.668;2023-04-03T14:40:24;7.70;99.90
42989;DHT22;28622;43.716;20.668;2023-04-03T14:42:51;7.70;99.90
42989;DHT22;28622;43.716;20.668;2023-04-03T14:45:21;7.70;99.90
42989;DHT22;28622;43.716;20.668;2023-04-03T14:47:50;7.60;99.90
42989;DHT22;28622;43.716;20.668;2023-04-03T14:50:23;7.60;99.90
42989;DHT22;28622;43.716;20.668;2023-04-03T14:52:51;7.60;99.90
42989;DHT22;28622;43.716;20.668;2023-04-03T14:55:19;7.60;99.90
42989;DHT22;28622;43.716;20.668;2023-04-03T14:57:45;7.60;99.90
42989;DHT22;28622;43.716;20.668;2023-04-03T15:00:14;7.60;99.90
42989;DHT22;28622;43.716;20.668;2023-04-03T15:02:41;7.60;99.90
42989;DHT22;28622;43.716;20.668;2023-04-03T15:05:09;7.60;99.90
42989;DHT22;28622;43.716;20.668;2023-04-03T15:07:38;7.70;99.90
42989;DHT22;28622;43.716;20.668;2023-04-03T15:10:25;7.70;99.90
42989;DHT22;28622;43.716;20.668;2023-04-03T15:12:52;7.70;99.90
42989;DHT22;28622;43.716;20.668;2023-04-03T15:15:20;7.80;99.90
42989;DHT22;28622;43.716;20.668;2023-04-03T15:17:47;7.80;99.90
42989;DHT22;28622;43.716;20.668;2023-04-03T15:20:18;7.80;99.90
42989;DHT22;28622;43.716;20.668;2023-04-03T15:22:45;7.80;99.90
42989;DHT22;28622;43.716;20.668;2023-04-03T15:25:11;7.80;99.90
42989;DHT22;28622;43.716;20.668;2023-04-03T15:27:37;7.80;99.90
42989;DHT22;28622;43.716;20.668;2023-04-03T15:30:06;7.80;99.90
42989;DHT22;28622;43.716;20.668;2023-04-03T15:32:32;7.90;99.90
42989;DHT22;28622;43.716;20.668;2023-04-03T15:34:59;7.90;99.90
42989;DHT22;28622;43.716;20.668;2023-04-03T15:37:25;7.90;99.90
42989;DHT22;28622;43.716;20.668;2023-04-03T15:39:51;8.00;99.90
42989;DHT22;28622;43.716;20.668;2023-04-03T15:42:17;8.00;99.90
42989;DHT22;28622;43.716;20.668;2023-04-03T15:44:43;8.00;99.90
42989;DHT22;28622;43.716;20.668;2023-04-03T15:47:08;8.00;99.90
42989;DHT22;28622;43.716;20.668;2023-04-03T15:49:35;8.00;99.90
42989;DHT22;28622;43.716;20.668;2023-04-03T15:52:01;7.90;99.90
42989;DHT22;28622;43.716;20.668;2023-04-03T15:54:27;7.90;99.90
42989;DHT22;28622;43.716;20.668;2023-04-03T15:56:55;7.80;99.90
42989;DHT22;28622;43.716;20.668;2023-04-03T15:59:21;7.90;99.90
42989;DHT22;28622;43.716;20.668;2023-04-03T16:01:48;7.80;99.90
42989;DHT22;28622;43.716;20.668;2023-04-03T16:04:14;7.80;99.90
42989;DHT22;28622;43.716;20.668;2023-04-03T16:06:40;7.80;99.90
42989;DHT22;28622;43.716;20.668;2023-04-03T16:09:07;7.90;99.90
42989;DHT22;28622;43.716;20.668;2023-04-03T16:11:33;7.90;99.90
42989;DHT22;28622;43.716;20.668;2023-04-03T16:14:01;7.90;99.90
42989;DHT22;28622;43.716;20.668;2023-04-03T16:16:27;7.80;99.90
42989;DHT22;28622;43.716;20.668;2023-04-03T16:18:54;7.80;99.90
42989;DHT22;28622;43.716;20.668;2023-04-03T16:21:21;7.80;99.90
42989;DHT22;28622;43.716;20.668;2023-04-03T16:23:47;7.90;99.90
42989;DHT22;28622;43.716;20.668;2023-04-03T16:26:14;7.90;99.90
42989;DHT22;28622;43.716;20.668;2023-04-03T16:28:40;7.80;99.90
42989;DHT22;28622;43.716;20.668;2023-04-03T16:31:07;7.70;99.90
42989;DHT22;28622;43.716;20.668;2023-04-03T16:33:33;7.70;99.90
42989;DHT22;28622;43.716;20.668;2023-04-03T16:35:59;7.70;99.90
42989;DHT22;28622;43.716;20.668;2023-04-03T16:38:25;7.70;99.90
42989;DHT22;28622;43.716;20.668;2023-04-03T16:40:51;7.60;99.90
42989;DHT22;28622;43.716;20.668;2023-04-03T16:43:22;7.60;99.90
42989;DHT22;28622;43.716;20.668;2023-04-03T16:45:47;7.60;99.90
42989;DHT22;28622;43.716;20.668;2023-04-03T16:48:13;7.70;99.90
42989;DHT22;28622;43.716;20.668;2023-04-03T16:50:39;7.60;99.90
42989;DHT22;28622;43.716;20.668;2023-04-03T16:53:05;7.70;99.90
42989;DHT22;28622;43.716;20.668;2023-04-03T16:55:33;7.70;99.90
42989;DHT22;28622;43.716;20.668;2023-04-03T16:57:59;7.70;99.90
42989;DHT22;28622;43.716;20.668;2023-04-03T17:00:25;7.80;99.90
42989;DHT22;28622;43.716;20.668;2023-04-03T17:02:51;7.70;99.90
42989;DHT22;28622;43.716;20.668;2023-04-03T17:05:17;7.80;99.90
42989;DHT22;28622;43.716;20.668;2023-04-03T17:07:43;7.80;99.90
42989;DHT22;28622;43.716;20.668;2023-04-03T17:10:09;7.80;99.90
42989;DHT22;28622;43.716;20.668;2023-04-03T17:12:35;7.80;99.90
42989;DHT22;28622;43.716;20.668;2023-04-03T17:15:01;7.80;99.90
42989;DHT22;28622;43.716;20.668;2023-04-03T17:17:27;7.80;99.90
42989;DHT22;28622;43.716;20.668;2023-04-03T17:19:54;7.80;99.90
42989;DHT22;28622;43.716;20.668;2023-04-03T17:22:20;7.80;99.90
42989;DHT22;28622;43.716;20.668;2023-04-03T17:24:46;7.70;99.90